Baltia — 9HMG9 — position and weather

sailwx.info

Track history (hours):
 
Tides and Currents Weather Stations Pressure Air Temp Water Temp Dewpoint Dewpoint Depression Visibility Wind Speed Wind Dir Waves Ship Positions

Baltia

Last reported at 2016-Jan-29 06:31 UTC. Time now 2016-Feb-14 21:03 UTC.
Position N 01°57' E 102°15'.
Warning: this ship's position is 16 days out of date.

Length 224 m; draft 13.9 m.

Type: Cargo ship. MMSI: 249174000.

Date/timePositionNaut miles runAvg speedWind from/ knotsBaromVisibWave heightAir tempDewpointWater temp
2016-Jan-29 06:31N 01°57' E 102°15'1111.2
2016-Jan-29 05:32N 01°52' E 102°25'1210.4
2016-Jan-29 04:26N 01°47' E 102°36'1010.3
2016-Jan-29 03:26N 01°43' E 102°45'7011.2
2016-Jan-28 21:12N 01°10' E 103°47'710.6
2016-Jan-28 20:33N 01°13' E 103°53'9 8.8
2016-Jan-28 19:34N 01°17' E 104°00'1 0.1
2016-Jan-28 12:31N 01°17' E 103°60'0 0.0
2016-Jan-28 07:13N 01°17' E 103°60'0 0.1
2016-Jan-28 05:27N 01°17' E 103°60'2 2.7
2016-Jan-28 04:33N 01°16' E 104°02'  
Track history (hours):
 
Tides and Currents Weather Stations Pressure Air Temp Water Temp Dewpoint Dewpoint Depression Visibility Wind Speed Wind Dir Waves Ship Positions

Baltia

Last reported at 2016-Jan-29 06:31 UTC. Time now 2016-Feb-14 21:03 UTC.
Position N 01°57' E 102°15'.
Warning: this ship's position is 16 days out of date.

Length 224 m; draft 13.9 m.

Type: Cargo ship. MMSI: 249174000.

Date/timePositionNaut miles runAvg speedWind from/ knotsBaromVisibWave heightAir tempDewpointWater temp
2016-Jan-29 06:31N 01°57' E 102°15'1111.2
2016-Jan-29 05:32N 01°52' E 102°25'1210.4
2016-Jan-29 04:26N 01°47' E 102°36'1010.3
2016-Jan-29 03:26N 01°43' E 102°45'7011.2
2016-Jan-28 21:12N 01°10' E 103°47'710.6
2016-Jan-28 20:33N 01°13' E 103°53'9 8.8
2016-Jan-28 19:34N 01°17' E 104°00'1 0.1
2016-Jan-28 12:31N 01°17' E 103°60'0 0.0
2016-Jan-28 07:13N 01°17' E 103°60'0 0.1
2016-Jan-28 05:27N 01°17' E 103°60'2 2.7
2016-Jan-28 04:33N 01°16' E 104°02'  

Dump ship's entire track history